Data for 10/21/2007

Time Sea-Level Adjusted Pressure Absolute Pressure Temperature Relative Humidity Dew Point   
(mb) (inHg) (mb) (inHg) (C) (F) (%) (C) (F)
00:05 1018 30.06 847 25.01 1 33.8 79 -2.3 27.9
00:10 1018 30.06 847 25.01 0.7 33.3 82 -2 28.3
00:15 1018 30.06 847 25.01 0.5 32.9 85 -1.8 28.8
00:20 1018 30.06 847 25.01 0.3 32.5 86 -1.8 28.7
00:25 1018 30.06 847 25.01 0.3 32.6 85 -2 28.5
00:30 1018 30.06 848 25.04 0.4 32.7 83 -2.1 28.2
00:35 1018 30.06 848 25.04 0.6 33.1 80 -2.5 27.5
00:40 1019 30.09 848 25.04 0.7 33.3 80 -2.2 28
00:45 1019 30.09 848 25.04 0.8 33.4 79 -2.5 27.6
00:50 1019 30.09 848 25.04 0.8 33.4 78 -2.5 27.4
00:55 1019 30.09 848 25.04 0.9 33.7 79 -2.4 27.7
01:00 1019 30.09 848 25.04 1.1 34 75 -2.8 27
01:05 1019 30.09 848 25.04 1.2 34.1 75 -2.7 27.1
01:10 1019 30.09 848 25.04 1.1 34 76 -2.7 27.1
01:15 1019 30.09 848 25.04 1.2 34.1 75 -2.9 26.8
01:20 1019 30.09 848 25.04 1.2 34.1 75 -2.7 27.1
01:25 1019 30.09 848 25.04 1.1 34 76 -2.7 27.2
01:30 1019 30.09 848 25.04 1.1 33.9 76 -2.7 27.1
01:35 1019 30.09 849 25.07 1.1 33.9 77 -2.6 27.4
01:40 1019 30.09 849 25.07 1.1 34 76 -2.6 27.3
01:45 1019 30.09 849 25.07 1.1 34 76 -2.7 27.1
01:50 1019 30.09 849 25.07 1.1 34 75 -2.9 26.8
01:55 1019 30.09 849 25.07 1.1 34.1 74 -3 26.6
02:00 1020 30.12 849 25.07 1.2 34.2 73 -3 26.5
02:05 1020 30.12 849 25.07 1.2 34.2 73 -3.1 26.4
02:10 1020 30.12 849 25.07 1.2 34.2 73 -3.1 26.4
02:15 1020 30.12 849 25.07 1.1 33.9 74 -3 26.5
02:20 1020 30.12 849 25.07 1 33.8 74 -3.1 26.4
02:25 1020 30.12 849 25.07 1 33.9 74 -3 26.6
02:30 1020 30.12 849 25.07 1.1 33.9 74 -3.1 26.5
02:35 1020 30.12 849 25.07 1.1 34 74 -3 26.6
02:40 1020 30.12 850 25.1 1.2 34.1 74 -3 26.6
02:45 1020 30.12 850 25.1 1.2 34.2 75 -2.7 27.1
02:50 1020 30.12 850 25.1 1.2 34.2 75 -2.7 27.1
02:55 1021 30.15 850 25.1 1.1 34 76 -2.7 27.1
03:00 1021 30.15 850 25.1 1.2 34.1 76 -2.6 27.2
03:05 1021 30.15 850 25.1 1.1 34 75 -2.9 26.8
03:10 1021 30.15 850 25.1 1.2 34.1 75 -2.9 26.8
03:15 1021 30.15 850 25.1 1.2 34.2 74 -2.9 26.7
03:20 1021 30.15 850 25.1 1.2 34.2 73 -3 26.6
03:25 1021 30.15 850 25.1 1.2 34.2 73 -3.2 26.3
03:30 1021 30.15 850 25.1 1.3 34.3 72 -3.2 26.3
03:35 1021 30.15 850 25.1 1.3 34.3 72 -3.1 26.3
03:40 1021 30.15 850 25.1 1.2 34.2 73 -3.2 26.3
03:45 1021 30.15 850 25.1 1.2 34.2 73 -3 26.5
03:50 1021 30.15 850 25.1 1.2 34.2 73 -3.1 26.4
03:55 1021 30.15 850 25.1 1.2 34.2 73 -3.1 26.4
04:00 1021 30.15 850 25.1 1.3 34.3 72 -3.2 26.2
04:05 1021 30.15 850 25.1 1.3 34.4 73 -3.1 26.5
04:10 1021 30.15 850 25.1 1.3 34.4 72 -3.1 26.4
04:15 1021 30.15 850 25.1 1.4 34.4 73 -3 26.6
04:20 1021 30.15 850 25.1 1.3 34.3 73 -3 26.7
04:25 1021 30.15 851 25.13 1.2 34.2 72 -3.2 26.2
04:30 1021 30.15 851 25.13 1.2 34.2 73 -3 26.6
04:35 1021 30.15 851 25.13 1.2 34.1 74 -2.9 26.8
04:40 1022 30.18 851 25.13 1 33.8 74 -3.2 26.2
04:45 1022 30.18 851 25.13 1.3 34.3 72 -3.2 26.2
04:50 1022 30.18 851 25.13 1.3 34.3 72 -3.3 26.1
04:55 1022 30.18 851 25.13 1.3 34.3 72 -3.3 26
05:00 1022 30.18 851 25.13 1.2 34.2 71 -3.5 25.8
05:05 1022 30.18 851 25.13 1.2 34.2 72 -3.4 25.9
05:10 1022 30.18 851 25.13 1.1 34 72 -3.4 25.9
05:15 1022 30.18 851 25.13 1.2 34.1 72 -3.4 25.9
05:20 1022 30.18 851 25.13 1.2 34.2 72 -3.4 26
05:25 1022 30.18 851 25.13 1.3 34.3 72 -3.2 26.2
05:30 1022 30.18 851 25.13 1.2 34.2 73 -3.2 26.3
05:35 1022 30.18 852 25.16 1.2 34.1 72 -3.3 26.1
05:40 1022 30.18 852 25.16 1.1 34.1 72 -3.4 25.9
05:45 1023 30.21 852 25.16 1.1 34 72 -3.3 26
05:50 1023 30.21 852 25.16 1.1 34 72 -3.5 25.8
05:55 1023 30.21 852 25.16 1.2 34.1 72 -3.4 25.9
06:00 1023 30.21 852 25.16 1.2 34.2 71 -3.5 25.7
06:05 1023 30.21 852 25.16 1.2 34.2 71 -3.5 25.7
06:10 1023 30.21 852 25.16 1.3 34.3 71 -3.5 25.7
06:15 1023 30.21 852 25.16 1.3 34.3 70 -3.6 25.6
06:20 1023 30.21 852 25.16 1.3 34.3 71 -3.5 25.7
06:25 1023 30.21 852 25.16 1.3 34.4 71 -3.4 25.8
06:30 1023 30.21 852 25.16 1.3 34.4 71 -3.3 26.1
06:35 1023 30.21 852 25.16 1 33.7 74 -3.1 26.4
06:40 1023 30.21 852 25.16 0.7 33.3 74 -3.5 25.7
06:45 1023 30.21 853 25.19 0.9 33.6 72 -3.6 25.6
06:50 1023 30.21 853 25.19 1 33.8 71 -3.7 25.3
06:55 1024 30.24 853 25.19 1.2 34.1 70 -3.6 25.4
07:00 1024 30.24 853 25.19 1.3 34.3 69 -3.9 25.1
07:05 1024 30.24 853 25.19 1.4 34.4 68 -4 24.8
07:10 1024 30.24 853 25.19 1.4 34.6 69 -3.6 25.5
07:15 1024 30.24 853 25.19 1.5 34.7 67 -3.9 24.9
07:20 1024 30.24 853 25.19 1.5 34.7 69 -3.6 25.5
07:25 1024 30.24 853 25.19 1.6 34.9 68 -3.8 25.2
07:30 1024 30.24 853 25.19 1.6 34.9 67 -3.8 25.2
07:35 1024 30.24 853 25.19 1.5 34.8 68 -3.7 25.3
07:40 1024 30.24 854 25.22 1.4 34.5 68 -3.9 24.9
07:45 1024 30.24 854 25.22 1.3 34.4 70 -3.5 25.7
07:50 1025 30.27 854 25.22 1.2 34.2 71 -3.6 25.6
07:55 1025 30.27 854 25.22 1.1 34 70 -3.8 25.1
08:00 1025 30.27 854 25.22 1 33.8 71 -3.7 25.3
08:05 1025 30.27 854 25.22 1 33.8 70 -3.9 25
08:10 1025 30.27 854 25.22 1 33.8 71 -3.7 25.4
08:15 1025 30.27 854 25.22 1.1 34 70 -3.8 25.1
08:20 1025 30.27 854 25.22 1.2 34.1 70 -3.7 25.3
08:25 1025 30.27 854 25.22 1.1 33.9 70 -3.8 25.2
08:30 1025 30.27 854 25.22 1 33.8 72 -3.5 25.6
08:35 1025 30.27 854 25.22 1.2 34.1 71 -3.5 25.7
08:40 1025 30.27 855 25.25 1.3 34.4 70 -3.6 25.5
08:45 1025 30.27 855 25.25 1.5 34.7 67 -4 24.8
08:50 1025 30.27 855 25.25 1.7 35.1 66 -4 24.8
08:55 1025 30.27 855 25.25 1.9 35.3 64 -4.3 24.2
09:00 1026 30.3 855 25.25 2 35.7 62 -4.5 23.9
09:05 1026 30.3 855 25.25 2.2 36 59 -5 23.1
09:10 1026 30.3 855 25.25 2.3 36.2 60 -4.7 23.5
09:15 1026 30.3 855 25.25 2.4 36.3 60 -4.5 23.8
09:20 1026 30.3 855 25.25 2.5 36.6 61 -4.2 24.4
09:25 1026 30.3 855 25.25 2.7 36.9 63 -3.6 25.6
09:30 1026 30.3 855 25.25 2.4 36.4 66 -3.4 26
09:35 1026 30.3 855 25.25 2 35.6 66 -3.7 25.3
09:40 1026 30.3 856 25.28 2.2 36 64 -3.9 25
09:45 1026 30.3 856 25.28 2.5 36.5 63 -3.8 25.1
09:50 1027 30.33 856 25.28 2.6 36.8 63 -3.7 25.4
09:55 1027 30.33 856 25.28 2.6 36.7 63 -3.8 25.2
10:00 1027 30.33 856 25.28 2.8 37 62 -3.8 25.1
10:05 1027 30.33 856 25.28 3 37.4 59 -4.2 24.5
10:10 1027 30.33 856 25.28 3.1 37.5 60 -4 24.8
10:15 1027 30.33 856 25.28 3.2 37.7 60 -3.9 25
10:20 1027 30.33 856 25.28 3.2 37.8 60 -3.8 25.1
10:25 1027 30.33 856 25.28 3.2 37.8 60 -3.8 25.2
10:30 1027 30.33 856 25.28 2.9 37.3 61 -3.9 25
10:35 1027 30.33 856 25.28 2.9 37.2 60 -4 24.7
10:40 1027 30.33 857 25.31 2.8 37.1 60 -4.1 24.6
10:45 1027 30.33 857 25.31 3.1 37.5 59 -4.2 24.4
10:50 1027 30.33 857 25.31 3.5 38.3 58 -4.1 24.6
10:55 1027 30.33 857 25.31 3.8 38.9 56 -4.2 24.5
11:00 1028 30.36 857 25.31 4.7 40.5 52 -4.3 24.3
11:05 1028 30.36 857 25.31 5.3 41.6 49 -4.4 24
11:10 1028 30.36 857 25.31 6 42.8 49 -3.8 25.1
11:15 1028 30.36 857 25.31 5.7 42.2 48 -4.4 24.1
11:20 1028 30.36 857 25.31 5 41 48 -5.3 22.5
11:25 1028 30.36 857 25.31 4.9 40.7 48 -5.3 22.4
11:30 1028 30.36 857 25.31 4.9 40.8 47 -5.5 22.2
11:35 1028 30.36 857 25.31 5.4 41.7 45 -5.7 21.7
11:40 1028 30.36 857 25.31 5.5 42 43 -6.1 21
11:45 1028 30.36 857 25.31 5.4 41.7 44 -5.7 21.7
11:50 1028 30.36 857 25.31 5.1 41.1 46 -5.5 22
11:55 1028 30.36 857 25.31 5.1 41.1 45 -6 21.2
12:00 1028 30.36 857 25.31 5.5 42 44 -5.8 21.5
12:05 1028 30.36 857 25.31 5.5 42 44 -5.7 21.8
12:10 1028 30.36 857 25.31 5.3 41.6 42 -6.5 20.3
12:15 1028 30.36 857 25.31 5.1 41.2 41 -7.1 19.2
12:20 1028 30.36 857 25.31 5.8 42.4 37 -8 17.7
12:25 1028 30.36 857 25.31 5.6 42.1 39 -7.4 18.7
12:30 1028 30.36 857 25.31 5.5 41.9 40 -6.9 19.6
12:35 1028 30.36 857 25.31 5.4 41.7 40 -7 19.4
12:40 1028 30.36 857 25.31 5.3 41.5 39 -7.5 18.5
12:45 1028 30.36 857 25.31 5.4 41.8 38 -7.7 18.1
12:50 1028 30.36 857 25.31 5.6 42.2 39 -7.3 18.8
12:55 1028 30.36 857 25.31 5.6 42.1 38 -7.7 18.1
13:00 1028 30.36 857 25.31 5.6 42 39 -7.3 18.8
13:05 1028 30.36 857 25.31 5.8 42.4 36 -8.2 17.2
13:10 1028 30.36 857 25.31 6 42.8 35 -8.5 16.7
13:15 1028 30.36 857 25.31 6.2 43.1 35 -8.3 17
13:20 1028 30.36 857 25.31 6.4 43.6 34 -8.1 17.4
13:25 1028 30.36 857 25.31 6.1 43 35 -8.1 17.4
13:30 1028 30.36 857 25.31 5.8 42.4 37 -7.8 18
13:35 1028 30.36 857 25.31 5.6 42 35 -8.6 16.6
13:40 1028 30.36 857 25.31 5.6 42.2 35 -8.7 16.3
13:45 1028 30.36 857 25.31 6.9 44.3 31 -9 15.9
13:50 1028 30.36 857 25.31 7.1 44.9 32 -8.6 16.5
13:55 1028 30.36 857 25.31 6.5 43.6 33 -8.6 16.5
14:00 1028 30.36 857 25.31 6.7 44.1 33 -8.5 16.7
14:05 1028 30.36 857 25.31 7.7 45.8 31 -8.6 16.6
14:10 1028 30.36 857 25.31 7.6 45.7 32 -8.1 17.3
14:15 1028 30.36 857 25.31 7.3 45.1 31 -8.7 16.3
14:20 1028 30.36 857 25.31 7.3 45.1 31 -8.7 16.3
14:25 1028 30.36 857 25.31 7.4 45.4 31 -8.6 16.5
14:30 1028 30.36 857 25.31 8.1 46.6 30 -8.7 16.4
14:35 1028 30.36 857 25.31 7.5 45.4 32 -8.3 17.1
14:40 1028 30.36 857 25.31 7.1 44.7 32 -8.6 16.5
14:45 1028 30.36 857 25.31 6.8 44.3 32 -8.9 15.9
14:50 1028 30.36 857 25.31 6.6 43.9 32 -9.1 15.6
14:55 1028 30.36 857 25.31 6.7 44 33 -8.5 16.6
15:00 1028 30.36 857 25.31 7 44.5 33 -8.4 16.9
15:05 1028 30.36 857 25.31 6.9 44.4 31 -8.9 15.9
15:10 1028 30.36 857 25.31 6.8 44.3 31 -9.2 15.4
15:15 1028 30.36 857 25.31 6.6 44 31 -9.3 15.2
15:20 1028 30.36 857 25.31 6.7 44.1 32 -8.8 16.1
15:25 1028 30.36 857 25.31 6.8 44.2 31 -9 15.8
15:30 1028 30.36 857 25.31 7.3 45.2 31 -8.7 16.3
15:35 1028 30.36 857 25.31 7.3 45.2 31 -8.8 16.1
15:40 1028 30.36 857 25.31 7.9 46.1 29 -8.9 16
15:45 1028 30.36 857 25.31 8.3 46.9 30 -8.4 17
15:50 1028 30.36 857 25.31 8.3 46.9 29 -8.9 15.9
15:55 1028 30.36 857 25.31 7.8 46 29 -9.1 15.7
16:00 1028 30.36 857 25.31 7.6 45.6 30 -8.8 16.1
16:05 1028 30.36 857 25.31 8.1 46.6 29 -9 15.8
16:10 1028 30.36 857 25.31 8.4 47.1 29 -8.6 16.5
16:15 1028 30.36 857 25.31 8.5 47.3 28 -8.7 16.3
16:20 1028 30.36 857 25.31 8.6 47.4 28 -8.7 16.3
16:25 1028 30.36 857 25.31 8.4 47.1 30 -8.3 17.1
16:30 1028 30.36 857 25.31 7.6 45.6 30 -8.9 15.9
16:35 1028 30.36 857 25.31 7.1 44.7 31 -8.7 16.3
16:40 1028 30.36 857 25.31 6.8 44.3 32 -8.6 16.5
16:45 1028 30.36 857 25.31 6.7 44.1 33 -8.5 16.7
16:50 1028 30.36 857 25.31 6.6 43.9 33 -8.7 16.4
16:55 1028 30.36 857 25.31 6.6 43.9 33 -8.6 16.6
17:00 1028 30.36 858 25.34 7 44.7 31 -9 15.9
17:05 1028 30.36 857 25.31 7.8 46 29 -9 15.8
17:10 1028 30.36 857 25.31 7.8 46.1 30 -8.9 16
17:15 1028 30.36 857 25.31 7.7 45.8 30 -9 15.8
17:20 1028 30.36 857 25.31 7.6 45.7 30 -8.7 16.4
17:25 1028 30.36 857 25.31 7.1 44.8 32 -8.4 16.8
17:30 1028 30.36 857 25.31 6.9 44.5 33 -8.3 17.1
17:35 1028 30.36 857 25.31 7 44.6 33 -8.1 17.5
17:40 1028 30.36 858 25.34 6.7 44.1 33 -8.3 17.1
17:45 1028 30.36 858 25.34 6.6 43.8 34 -8.3 17
17:50 1028 30.36 858 25.34 6.5 43.8 34 -8.3 17
17:55 1028 30.36 858 25.34 6.5 43.7 34 -8.2 17.3
18:00 1029 30.39 858 25.34 6.5 43.6 35 -7.9 17.8
18:05 1029 30.39 858 25.34 6.4 43.6 36 -7.7 18.1
18:10 1029 30.39 858 25.34 6.4 43.6 35 -7.8 17.9
18:15 1029 30.39 858 25.34 6.6 43.8 36 -7.5 18.5
18:20 1029 30.39 858 25.34 6.1 43 38 -7.3 18.9
18:25 1029 30.39 858 25.34 5.9 42.6 38 -7.3 18.9
18:30 1029 30.39 858 25.34 5.7 42.2 39 -7.3 18.9
18:35 1029 30.39 858 25.34 5.6 42.1 39 -7.3 18.8
18:40 1029 30.39 858 25.34 5.6 42 40 -7.1 19.2
18:45 1029 30.39 858 25.34 5.5 41.9 41 -6.6 20
18:50 1029 30.39 858 25.34 5.3 41.5 46 -5.3 22.4
18:55 1029 30.39 858 25.34 4.1 39.4 52 -4.9 23.2
19:00 1029 30.39 858 25.34 3.8 38.8 49 -6.1 21.1
19:05 1029 30.39 858 25.34 4.1 39.4 45 -6.8 19.8
19:10 1029 30.39 858 25.34 4.4 39.9 44 -6.7 19.9
19:15 1029 30.39 858 25.34 4.5 40.1 43 -7.1 19.2
19:20 1029 30.39 858 25.34 4.6 40.2 43 -7 19.5
19:25 1029 30.39 858 25.34 4.5 40 43 -7.2 19.1
19:30 1029 30.39 858 25.34 4.4 39.9 42 -7.4 18.7
19:35 1029 30.39 858 25.34 4.5 40.1 42 -7.4 18.6
19:40 1029 30.39 858 25.34 4.5 40 43 -7.1 19.2
19:45 1029 30.39 858 25.34 4.3 39.8 43 -7.2 19
19:50 1029 30.39 858 25.34 4.2 39.5 44 -7 19.3
19:55 1029 30.39 858 25.34 3.9 39 45 -6.9 19.6
20:00 1029 30.39 858 25.34 3.7 38.7 47 -6.6 20.1
20:05 1029 30.39 858 25.34 3.6 38.5 47 -6.7 20
20:10 1029 30.39 858 25.34 3.6 38.5 46 -6.9 19.5
20:15 1029 30.39 858 25.34 3.7 38.7 45 -7.2 19.1
20:20 1029 30.39 858 25.34 3.9 39 44 -7.4 18.7
20:25 1029 30.39 858 25.34 4.1 39.3 43 -7.6 18.4
20:30 1029 30.39 858 25.34 4.1 39.4 44 -7 19.4
20:35 1029 30.39 858 25.34 3.9 39.1 45 -6.9 19.6
20:40 1029 30.39 858 25.34 3.8 38.8 46 -6.9 19.6
20:45 1029 30.39 858 25.34 3.6 38.4 47 -6.7 19.9
20:50 1029 30.39 858 25.34 3.4 38 49 -6.5 20.3
20:55 1029 30.39 858 25.34 3 37.4 50 -6.4 20.4
21:00 1029 30.39 858 25.34 2.8 37 51 -6.2 20.8
21:05 1029 30.39 858 25.34 2.5 36.6 52 -6.3 20.7
21:10 1029 30.39 858 25.34 2.4 36.3 53 -6.4 20.6
21:15 1029 30.39 858 25.34 2.3 36.2 53 -6.3 20.6
21:20 1029 30.39 858 25.34 2.3 36.1 54 -6.2 20.9
21:25 1029 30.39 858 25.34 2.3 36.1 54 -6.1 20.9
21:30 1029 30.39 858 25.34 2.3 36.1 55 -6 21.3
21:35 1029 30.39 859 25.37 2.2 35.9 55 -5.9 21.4
21:40 1030 30.42 859 25.37 2 35.6 56 -5.8 21.6
21:45 1029 30.39 859 25.37 1.6 35 59 -5.5 22.1
21:50 1030 30.42 859 25.37 1.2 34.2 61 -5.5 22.1
21:55 1030 30.42 859 25.37 1 33.8 62 -5.4 22.2
22:00 1029 30.39 859 25.37 0.7 33.3 64 -5.3 22.4
22:05 1029 30.39 859 25.37 0.6 33.1 64 -5.4 22.3
22:10 1029 30.39 859 25.37 0.7 33.3 65 -5.1 22.7
22:15 1029 30.39 859 25.37 0.9 33.7 65 -4.9 23.1
22:20 1029 30.39 859 25.37 0.8 33.4 66 -4.8 23.4
22:25 1029 30.39 859 25.37 0.8 33.4 66 -4.9 23.2
22:30 1029 30.39 859 25.37 0.9 33.7 65 -5 23
22:35 1029 30.39 859 25.37 0.7 33.3 66 -4.8 23.3
22:40 1029 30.39 859 25.37 0.8 33.4 65 -5 23
22:45 1029 30.39 859 25.37 0.8 33.5 66 -4.8 23.4
22:50 1029 30.39 859 25.37 0.6 33 68 -4.8 23.4
22:55 1029 30.39 859 25.37 0.7 33.3 66 -5 23
23:00 1029 30.39 859 25.37 1 33.7 65 -5 23
23:05 1030 30.42 859 25.37 1.1 33.9 64 -4.9 23.2
23:10 1030 30.42 859 25.37 1.2 34.1 64 -4.8 23.3
23:15 1030 30.42 859 25.37 1.2 34.2 63 -5.1 22.8
23:20 1030 30.42 859 25.37 1.2 34.1 63 -5 23
23:25 1030 30.42 859 25.37 1.1 33.9 64 -4.9 23.1
23:30 1030 30.42 859 25.37 0.7 33.2 67 -4.7 23.5
23:35 1030 30.42 859 25.37 0.6 33.1 65 -5.3 22.5
23:40 1030 30.42 859 25.37 0.8 33.5 62 -5.6 22
23:45 1030 30.42 859 25.37 1.1 34.1 61 -5.5 22.1
23:50 1030 30.42 859 25.37 1.3 34.3 60 -5.7 21.7
23:55 1030 30.42 859 25.37 1.4 34.6 59 -5.8 21.6
24:00 1030 30.42 859 25.37 1.5 34.7 59 -5.7 21.8